sensor_id;sensor_type;location;lat;lon;timestamp;P1;durP1;ratioP1;P2;durP2;ratioP2
47009;SDS011;59230;54.164;-3.124;2022-07-15T00:00:35;13.73;;;3.90;;
47009;SDS011;59230;54.164;-3.124;2022-07-15T00:03:01;16.52;;;3.70;;
47009;SDS011;59230;54.164;-3.124;2022-07-15T00:05:27;19.23;;;4.25;;
47009;SDS011;59230;54.164;-3.124;2022-07-15T00:07:53;13.65;;;3.25;;
47009;SDS011;59230;54.164;-3.124;2022-07-15T00:10:18;14.00;;;3.40;;
47009;SDS011;59230;54.164;-3.124;2022-07-15T00:13:02;14.98;;;3.78;;
47009;SDS011;59230;54.164;-3.124;2022-07-15T00:15:28;14.05;;;3.65;;
47009;SDS011;59230;54.164;-3.124;2022-07-15T00:17:55;13.68;;;3.47;;
47009;SDS011;59230;54.164;-3.124;2022-07-15T00:20:25;17.85;;;4.30;;
47009;SDS011;59230;54.164;-3.124;2022-07-15T00:22:51;17.30;;;3.83;;
47009;SDS011;59230;54.164;-3.124;2022-07-15T00:25:17;20.42;;;4.10;;
47009;SDS011;59230;54.164;-3.124;2022-07-15T00:27:49;14.57;;;3.65;;
47009;SDS011;59230;54.164;-3.124;2022-07-15T00:30:19;21.20;;;4.45;;
47009;SDS011;59230;54.164;-3.124;2022-07-15T00:32:46;16.60;;;3.85;;
47009;SDS011;59230;54.164;-3.124;2022-07-15T00:35:11;17.73;;;3.90;;
47009;SDS011;59230;54.164;-3.124;2022-07-15T00:37:37;14.98;;;3.42;;
47009;SDS011;59230;54.164;-3.124;2022-07-15T00:40:02;15.15;;;3.65;;
47009;SDS011;59230;54.164;-3.124;2022-07-15T00:42:28;17.60;;;4.32;;
47009;SDS011;59230;54.164;-3.124;2022-07-15T00:45:13;25.42;;;4.43;;
47009;SDS011;59230;54.164;-3.124;2022-07-15T00:47:41;19.83;;;3.92;;
47009;SDS011;59230;54.164;-3.124;2022-07-15T00:50:07;17.38;;;3.90;;
47009;SDS011;59230;54.164;-3.124;2022-07-15T00:52:33;16.15;;;3.90;;
47009;SDS011;59230;54.164;-3.124;2022-07-15T00:55:00;15.70;;;3.78;;
47009;SDS011;59230;54.164;-3.124;2022-07-15T00:57:27;17.70;;;3.92;;
47009;SDS011;59230;54.164;-3.124;2022-07-15T00:59:53;26.20;;;4.45;;
47009;SDS011;59230;54.164;-3.124;2022-07-15T01:02:19;26.40;;;4.00;;
47009;SDS011;59230;54.164;-3.124;2022-07-15T01:04:45;19.73;;;3.45;;
47009;SDS011;59230;54.164;-3.124;2022-07-15T01:07:12;13.23;;;3.38;;
47009;SDS011;59230;54.164;-3.124;2022-07-15T01:09:38;14.02;;;3.50;;
47009;SDS011;59230;54.164;-3.124;2022-07-15T01:12:03;14.88;;;4.05;;
47009;SDS011;59230;54.164;-3.124;2022-07-15T01:14:29;15.70;;;3.70;;
47009;SDS011;59230;54.164;-3.124;2022-07-15T01:16:55;12.10;;;3.60;;
47009;SDS011;59230;54.164;-3.124;2022-07-15T01:19:20;15.80;;;4.10;;
47009;SDS011;59230;54.164;-3.124;2022-07-15T01:21:46;19.45;;;3.53;;
47009;SDS011;59230;54.164;-3.124;2022-07-15T01:24:11;20.88;;;3.92;;
47009;SDS011;59230;54.164;-3.124;2022-07-15T01:26:37;15.15;;;3.80;;
47009;SDS011;59230;54.164;-3.124;2022-07-15T01:29:03;18.08;;;3.70;;
47009;SDS011;59230;54.164;-3.124;2022-07-15T01:31:28;17.55;;;3.78;;
47009;SDS011;59230;54.164;-3.124;2022-07-15T01:33:53;18.50;;;3.85;;
47009;SDS011;59230;54.164;-3.124;2022-07-15T01:36:19;18.55;;;4.25;;
47009;SDS011;59230;54.164;-3.124;2022-07-15T01:38:45;20.75;;;3.80;;
47009;SDS011;59230;54.164;-3.124;2022-07-15T01:41:10;17.23;;;3.38;;
47009;SDS011;59230;54.164;-3.124;2022-07-15T01:43:36;16.35;;;3.42;;
47009;SDS011;59230;54.164;-3.124;2022-07-15T01:48:37;18.55;;;3.60;;
47009;SDS011;59230;54.164;-3.124;2022-07-15T01:51:31;21.60;;;4.32;;
47009;SDS011;59230;54.164;-3.124;2022-07-15T01:53:57;19.40;;;4.28;;
47009;SDS011;59230;54.164;-3.124;2022-07-15T01:56:22;15.82;;;4.03;;
47009;SDS011;59230;54.164;-3.124;2022-07-15T01:58:48;22.52;;;3.78;;
47009;SDS011;59230;54.164;-3.124;2022-07-15T02:01:14;14.70;;;3.28;;
47009;SDS011;59230;54.164;-3.124;2022-07-15T02:03:39;21.63;;;4.07;;
47009;SDS011;59230;54.164;-3.124;2022-07-15T02:06:05;14.45;;;3.55;;
47009;SDS011;59230;54.164;-3.124;2022-07-15T02:08:31;22.10;;;4.22;;
47009;SDS011;59230;54.164;-3.124;2022-07-15T02:10:57;16.70;;;3.60;;
47009;SDS011;59230;54.164;-3.124;2022-07-15T02:13:22;11.63;;;3.83;;
47009;SDS011;59230;54.164;-3.124;2022-07-15T02:15:48;18.33;;;4.40;;
47009;SDS011;59230;54.164;-3.124;2022-07-15T02:18:13;16.35;;;3.95;;
47009;SDS011;59230;54.164;-3.124;2022-07-15T02:20:38;26.02;;;4.95;;
47009;SDS011;59230;54.164;-3.124;2022-07-15T02:23:04;14.27;;;4.10;;
47009;SDS011;59230;54.164;-3.124;2022-07-15T02:25:31;18.27;;;4.35;;
47009;SDS011;59230;54.164;-3.124;2022-07-15T02:28:02;16.55;;;3.72;;
47009;SDS011;59230;54.164;-3.124;2022-07-15T02:30:30;18.50;;;3.88;;
47009;SDS011;59230;54.164;-3.124;2022-07-15T02:33:05;21.02;;;3.92;;
47009;SDS011;59230;54.164;-3.124;2022-07-15T02:35:31;18.50;;;4.03;;
47009;SDS011;59230;54.164;-3.124;2022-07-15T02:37:57;27.50;;;4.78;;
47009;SDS011;59230;54.164;-3.124;2022-07-15T02:40:23;18.52;;;3.90;;
47009;SDS011;59230;54.164;-3.124;2022-07-15T02:42:49;14.88;;;3.50;;
47009;SDS011;59230;54.164;-3.124;2022-07-15T02:45:16;12.63;;;3.47;;
47009;SDS011;59230;54.164;-3.124;2022-07-15T02:47:42;15.88;;;3.38;;
47009;SDS011;59230;54.164;-3.124;2022-07-15T02:50:08;20.40;;;3.80;;
47009;SDS011;59230;54.164;-3.124;2022-07-15T02:52:34;18.88;;;3.88;;
47009;SDS011;59230;54.164;-3.124;2022-07-15T02:55:00;18.67;;;3.95;;
47009;SDS011;59230;54.164;-3.124;2022-07-15T02:57:25;17.70;;;4.40;;
47009;SDS011;59230;54.164;-3.124;2022-07-15T02:59:51;17.58;;;4.10;;
47009;SDS011;59230;54.164;-3.124;2022-07-15T03:02:33;20.20;;;4.15;;
47009;SDS011;59230;54.164;-3.124;2022-07-15T03:04:59;15.45;;;3.47;;
47009;SDS011;59230;54.164;-3.124;2022-07-15T03:07:25;17.73;;;4.20;;
47009;SDS011;59230;54.164;-3.124;2022-07-15T03:09:53;17.40;;;4.13;;
47009;SDS011;59230;54.164;-3.124;2022-07-15T03:12:19;16.05;;;4.05;;
47009;SDS011;59230;54.164;-3.124;2022-07-15T03:14:44;20.88;;;4.65;;
47009;SDS011;59230;54.164;-3.124;2022-07-15T03:17:10;21.83;;;4.78;;
47009;SDS011;59230;54.164;-3.124;2022-07-15T03:19:35;25.50;;;4.25;;
47009;SDS011;59230;54.164;-3.124;2022-07-15T03:22:01;26.30;;;5.30;;
47009;SDS011;59230;54.164;-3.124;2022-07-15T03:24:26;17.45;;;4.70;;
47009;SDS011;59230;54.164;-3.124;2022-07-15T03:26:51;17.30;;;4.50;;
47009;SDS011;59230;54.164;-3.124;2022-07-15T03:29:17;16.85;;;4.32;;
47009;SDS011;59230;54.164;-3.124;2022-07-15T03:31:43;17.85;;;4.07;;
47009;SDS011;59230;54.164;-3.124;2022-07-15T03:34:08;14.23;;;3.90;;
47009;SDS011;59230;54.164;-3.124;2022-07-15T03:36:35;19.98;;;3.90;;
47009;SDS011;59230;54.164;-3.124;2022-07-15T03:39:22;21.88;;;4.25;;
47009;SDS011;59230;54.164;-3.124;2022-07-15T03:41:48;15.82;;;3.70;;
47009;SDS011;59230;54.164;-3.124;2022-07-15T03:44:13;17.52;;;4.10;;
47009;SDS011;59230;54.164;-3.124;2022-07-15T03:46:39;17.65;;;3.95;;
47009;SDS011;59230;54.164;-3.124;2022-07-15T03:49:05;20.73;;;4.55;;
47009;SDS011;59230;54.164;-3.124;2022-07-15T03:51:30;20.73;;;3.90;;
47009;SDS011;59230;54.164;-3.124;2022-07-15T03:53:59;24.27;;;4.22;;
47009;SDS011;59230;54.164;-3.124;2022-07-15T03:56:26;15.95;;;4.25;;
47009;SDS011;59230;54.164;-3.124;2022-07-15T03:58:52;17.67;;;3.92;;
47009;SDS011;59230;54.164;-3.124;2022-07-15T04:01:17;21.42;;;3.95;;
47009;SDS011;59230;54.164;-3.124;2022-07-15T04:03:43;16.90;;;3.85;;
47009;SDS011;59230;54.164;-3.124;2022-07-15T04:06:09;18.48;;;4.00;;
47009;SDS011;59230;54.164;-3.124;2022-07-15T04:08:34;22.92;;;4.72;;
47009;SDS011;59230;54.164;-3.124;2022-07-15T04:11:00;16.98;;;4.38;;
47009;SDS011;59230;54.164;-3.124;2022-07-15T04:13:25;17.35;;;4.32;;
47009;SDS011;59230;54.164;-3.124;2022-07-15T04:15:51;19.08;;;4.43;;
47009;SDS011;59230;54.164;-3.124;2022-07-15T04:18:17;20.95;;;5.07;;
47009;SDS011;59230;54.164;-3.124;2022-07-15T04:20:42;16.40;;;4.15;;
47009;SDS011;59230;54.164;-3.124;2022-07-15T04:23:28;22.17;;;4.50;;
47009;SDS011;59230;54.164;-3.124;2022-07-15T04:25:53;17.15;;;3.63;;
47009;SDS011;59230;54.164;-3.124;2022-07-15T04:28:20;20.52;;;4.57;;
47009;SDS011;59230;54.164;-3.124;2022-07-15T04:30:46;17.02;;;3.80;;
47009;SDS011;59230;54.164;-3.124;2022-07-15T04:33:12;20.08;;;4.38;;
47009;SDS011;59230;54.164;-3.124;2022-07-15T04:35:37;15.48;;;3.85;;
47009;SDS011;59230;54.164;-3.124;2022-07-15T04:38:03;20.10;;;3.97;;
47009;SDS011;59230;54.164;-3.124;2022-07-15T04:40:35;21.85;;;4.13;;
47009;SDS011;59230;54.164;-3.124;2022-07-15T04:43:01;19.33;;;4.65;;
47009;SDS011;59230;54.164;-3.124;2022-07-15T04:45:27;19.77;;;4.15;;
47009;SDS011;59230;54.164;-3.124;2022-07-15T04:47:53;17.38;;;4.30;;
47009;SDS011;59230;54.164;-3.124;2022-07-15T04:50:19;16.92;;;4.05;;
47009;SDS011;59230;54.164;-3.124;2022-07-15T04:53:03;22.58;;;5.03;;
47009;SDS011;59230;54.164;-3.124;2022-07-15T04:55:29;18.35;;;4.05;;
47009;SDS011;59230;54.164;-3.124;2022-07-15T04:57:55;21.45;;;4.72;;
47009;SDS011;59230;54.164;-3.124;2022-07-15T05:00:20;20.05;;;4.65;;
47009;SDS011;59230;54.164;-3.124;2022-07-15T05:02:46;15.23;;;3.92;;
47009;SDS011;59230;54.164;-3.124;2022-07-15T05:05:11;17.85;;;4.43;;
47009;SDS011;59230;54.164;-3.124;2022-07-15T05:07:37;17.27;;;3.85;;
47009;SDS011;59230;54.164;-3.124;2022-07-15T05:10:03;10.43;;;3.20;;
47009;SDS011;59230;54.164;-3.124;2022-07-15T05:12:30;19.98;;;4.20;;
47009;SDS011;59230;54.164;-3.124;2022-07-15T05:14:55;16.63;;;3.53;;
47009;SDS011;59230;54.164;-3.124;2022-07-15T05:17:21;13.60;;;3.20;;
47009;SDS011;59230;54.164;-3.124;2022-07-15T05:19:46;14.05;;;3.70;;
47009;SDS011;59230;54.164;-3.124;2022-07-15T05:22:12;14.50;;;3.78;;
47009;SDS011;59230;54.164;-3.124;2022-07-15T05:24:37;15.02;;;3.33;;
47009;SDS011;59230;54.164;-3.124;2022-07-15T05:27:03;11.20;;;3.10;;
47009;SDS011;59230;54.164;-3.124;2022-07-15T05:29:28;12.43;;;3.13;;
47009;SDS011;59230;54.164;-3.124;2022-07-15T05:31:54;9.40;;;2.85;;
47009;SDS011;59230;54.164;-3.124;2022-07-15T05:34:19;10.82;;;2.63;;
47009;SDS011;59230;54.164;-3.124;2022-07-15T05:36:45;12.35;;;3.13;;
47009;SDS011;59230;54.164;-3.124;2022-07-15T05:39:10;12.40;;;3.20;;
47009;SDS011;59230;54.164;-3.124;2022-07-15T05:41:39;10.70;;;3.03;;
47009;SDS011;59230;54.164;-3.124;2022-07-15T05:44:04;17.23;;;2.90;;
47009;SDS011;59230;54.164;-3.124;2022-07-15T05:46:30;10.88;;;3.15;;
47009;SDS011;59230;54.164;-3.124;2022-07-15T05:48:55;15.00;;;3.15;;
47009;SDS011;59230;54.164;-3.124;2022-07-15T05:51:21;12.45;;;2.70;;
47009;SDS011;59230;54.164;-3.124;2022-07-15T05:53:46;12.43;;;3.33;;
47009;SDS011;59230;54.164;-3.124;2022-07-15T05:56:11;23.60;;;3.78;;
47009;SDS011;59230;54.164;-3.124;2022-07-15T05:58:37;12.73;;;3.20;;
47009;SDS011;59230;54.164;-3.124;2022-07-15T06:01:03;11.18;;;3.25;;
47009;SDS011;59230;54.164;-3.124;2022-07-15T06:03:29;14.18;;;3.67;;
47009;SDS011;59230;54.164;-3.124;2022-07-15T06:05:55;15.02;;;3.33;;
47009;SDS011;59230;54.164;-3.124;2022-07-15T06:08:20;12.80;;;3.42;;
47009;SDS011;59230;54.164;-3.124;2022-07-15T06:10:46;16.13;;;3.45;;
47009;SDS011;59230;54.164;-3.124;2022-07-15T06:13:12;14.02;;;3.25;;
47009;SDS011;59230;54.164;-3.124;2022-07-15T06:15:37;12.07;;;3.33;;
47009;SDS011;59230;54.164;-3.124;2022-07-15T06:18:03;15.23;;;3.80;;
47009;SDS011;59230;54.164;-3.124;2022-07-15T06:20:29;10.77;;;3.65;;
47009;SDS011;59230;54.164;-3.124;2022-07-15T06:22:54;18.95;;;5.22;;
47009;SDS011;59230;54.164;-3.124;2022-07-15T06:25:20;17.88;;;4.53;;
47009;SDS011;59230;54.164;-3.124;2022-07-15T06:27:47;17.92;;;5.05;;
47009;SDS011;59230;54.164;-3.124;2022-07-15T06:30:12;18.75;;;5.10;;
47009;SDS011;59230;54.164;-3.124;2022-07-15T06:32:39;13.18;;;4.82;;
47009;SDS011;59230;54.164;-3.124;2022-07-15T06:35:05;19.15;;;5.10;;
47009;SDS011;59230;54.164;-3.124;2022-07-15T06:37:31;19.58;;;5.05;;
47009;SDS011;59230;54.164;-3.124;2022-07-15T06:39:56;18.42;;;5.07;;
47009;SDS011;59230;54.164;-3.124;2022-07-15T06:42:25;17.83;;;4.82;;
47009;SDS011;59230;54.164;-3.124;2022-07-15T06:44:50;17.92;;;5.38;;
47009;SDS011;59230;54.164;-3.124;2022-07-15T06:47:16;15.40;;;4.72;;
47009;SDS011;59230;54.164;-3.124;2022-07-15T06:49:41;16.98;;;4.88;;
47009;SDS011;59230;54.164;-3.124;2022-07-15T06:52:07;14.25;;;4.72;;
47009;SDS011;59230;54.164;-3.124;2022-07-15T06:54:33;17.33;;;5.13;;
47009;SDS011;59230;54.164;-3.124;2022-07-15T06:56:58;21.30;;;5.63;;
47009;SDS011;59230;54.164;-3.124;2022-07-15T06:59:25;19.20;;;5.68;;
47009;SDS011;59230;54.164;-3.124;2022-07-15T07:01:51;20.08;;;5.68;;
47009;SDS011;59230;54.164;-3.124;2022-07-15T07:04:17;15.63;;;4.90;;
47009;SDS011;59230;54.164;-3.124;2022-07-15T07:06:43;15.90;;;5.40;;
47009;SDS011;59230;54.164;-3.124;2022-07-15T07:09:08;16.63;;;5.30;;
47009;SDS011;59230;54.164;-3.124;2022-07-15T07:11:34;20.52;;;5.18;;
47009;SDS011;59230;54.164;-3.124;2022-07-15T07:13:59;12.55;;;5.13;;
47009;SDS011;59230;54.164;-3.124;2022-07-15T07:16:25;23.33;;;4.80;;
47009;SDS011;59230;54.164;-3.124;2022-07-15T07:18:51;17.67;;;4.95;;
47009;SDS011;59230;54.164;-3.124;2022-07-15T07:21:17;19.00;;;5.15;;
47009;SDS011;59230;54.164;-3.124;2022-07-15T07:23:43;16.23;;;5.45;;
47009;SDS011;59230;54.164;-3.124;2022-07-15T07:26:09;21.48;;;5.55;;
47009;SDS011;59230;54.164;-3.124;2022-07-15T07:28:35;21.55;;;5.57;;
47009;SDS011;59230;54.164;-3.124;2022-07-15T07:31:03;19.75;;;5.68;;
47009;SDS011;59230;54.164;-3.124;2022-07-15T07:33:29;21.95;;;4.90;;
47009;SDS011;59230;54.164;-3.124;2022-07-15T07:35:54;21.25;;;5.38;;
47009;SDS011;59230;54.164;-3.124;2022-07-15T07:38:20;21.13;;;4.90;;
47009;SDS011;59230;54.164;-3.124;2022-07-15T07:40:46;16.38;;;5.00;;
47009;SDS011;59230;54.164;-3.124;2022-07-15T07:46:05;18.50;;;4.95;;
47009;SDS011;59230;54.164;-3.124;2022-07-15T07:48:30;12.77;;;4.65;;
47009;SDS011;59230;54.164;-3.124;2022-07-15T07:50:56;15.70;;;5.28;;
47009;SDS011;59230;54.164;-3.124;2022-07-15T07:53:22;19.63;;;5.00;;
47009;SDS011;59230;54.164;-3.124;2022-07-15T07:55:49;18.17;;;4.82;;
47009;SDS011;59230;54.164;-3.124;2022-07-15T07:58:15;21.77;;;4.85;;
47009;SDS011;59230;54.164;-3.124;2022-07-15T08:00:41;18.95;;;4.55;;
47009;SDS011;59230;54.164;-3.124;2022-07-15T08:03:07;18.25;;;4.30;;
47009;SDS011;59230;54.164;-3.124;2022-07-15T08:05:33;16.92;;;4.60;;
47009;SDS011;59230;54.164;-3.124;2022-07-15T08:08:06;21.55;;;5.00;;
47009;SDS011;59230;54.164;-3.124;2022-07-15T08:10:34;16.48;;;4.93;;
47009;SDS011;59230;54.164;-3.124;2022-07-15T08:12:59;14.38;;;4.22;;
47009;SDS011;59230;54.164;-3.124;2022-07-15T08:15:26;15.35;;;4.63;;
47009;SDS011;59230;54.164;-3.124;2022-07-15T08:17:52;11.15;;;4.30;;
47009;SDS011;59230;54.164;-3.124;2022-07-15T08:20:17;16.42;;;4.72;;
47009;SDS011;59230;54.164;-3.124;2022-07-15T08:22:43;16.00;;;4.43;;
47009;SDS011;59230;54.164;-3.124;2022-07-15T08:25:09;17.40;;;4.28;;
47009;SDS011;59230;54.164;-3.124;2022-07-15T08:27:34;18.58;;;4.75;;
47009;SDS011;59230;54.164;-3.124;2022-07-15T08:30:00;18.70;;;4.28;;
47009;SDS011;59230;54.164;-3.124;2022-07-15T08:32:25;13.43;;;3.95;;
47009;SDS011;59230;54.164;-3.124;2022-07-15T08:34:51;16.38;;;4.38;;
47009;SDS011;59230;54.164;-3.124;2022-07-15T08:37:17;13.25;;;4.18;;
47009;SDS011;59230;54.164;-3.124;2022-07-15T08:39:42;16.77;;;3.80;;
47009;SDS011;59230;54.164;-3.124;2022-07-15T08:42:08;13.70;;;4.63;;
47009;SDS011;59230;54.164;-3.124;2022-07-15T08:44:33;14.32;;;4.80;;
47009;SDS011;59230;54.164;-3.124;2022-07-15T08:47:02;21.10;;;4.20;;
47009;SDS011;59230;54.164;-3.124;2022-07-15T08:49:29;10.38;;;3.95;;
47009;SDS011;59230;54.164;-3.124;2022-07-15T08:51:56;18.13;;;4.72;;
47009;SDS011;59230;54.164;-3.124;2022-07-15T08:54:23;15.38;;;4.10;;
47009;SDS011;59230;54.164;-3.124;2022-07-15T08:56:49;17.27;;;4.07;;
47009;SDS011;59230;54.164;-3.124;2022-07-15T08:59:14;13.98;;;4.18;;
47009;SDS011;59230;54.164;-3.124;2022-07-15T09:01:41;16.48;;;4.10;;
47009;SDS011;59230;54.164;-3.124;2022-07-15T09:04:08;20.55;;;4.18;;
47009;SDS011;59230;54.164;-3.124;2022-07-15T09:06:40;19.25;;;4.68;;
47009;SDS011;59230;54.164;-3.124;2022-07-15T09:09:25;13.05;;;4.00;;
47009;SDS011;59230;54.164;-3.124;2022-07-15T09:11:59;16.10;;;4.07;;
47009;SDS011;59230;54.164;-3.124;2022-07-15T09:14:28;20.25;;;4.07;;
47009;SDS011;59230;54.164;-3.124;2022-07-15T09:19:29;13.80;;;4.30;;
47009;SDS011;59230;54.164;-3.124;2022-07-15T09:22:17;13.20;;;3.50;;
47009;SDS011;59230;54.164;-3.124;2022-07-15T09:24:43;12.02;;;3.42;;
47009;SDS011;59230;54.164;-3.124;2022-07-15T09:27:28;14.82;;;4.10;;
47009;SDS011;59230;54.164;-3.124;2022-07-15T09:29:55;11.93;;;4.40;;
47009;SDS011;59230;54.164;-3.124;2022-07-15T09:32:39;10.25;;;3.13;;
47009;SDS011;59230;54.164;-3.124;2022-07-15T09:35:23;15.75;;;3.83;;
47009;SDS011;59230;54.164;-3.124;2022-07-15T09:38:06;13.40;;;3.33;;
47009;SDS011;59230;54.164;-3.124;2022-07-15T09:40:32;11.18;;;4.07;;
47009;SDS011;59230;54.164;-3.124;2022-07-15T09:43:05;12.65;;;3.30;;
47009;SDS011;59230;54.164;-3.124;2022-07-15T09:45:35;13.10;;;3.63;;
47009;SDS011;59230;54.164;-3.124;2022-07-15T09:48:19;20.08;;;4.30;;
47009;SDS011;59230;54.164;-3.124;2022-07-15T09:50:44;13.98;;;4.45;;
47009;SDS011;59230;54.164;-3.124;2022-07-15T09:53:11;13.90;;;3.42;;
47009;SDS011;59230;54.164;-3.124;2022-07-15T09:55:38;15.15;;;4.30;;
47009;SDS011;59230;54.164;-3.124;2022-07-15T09:58:05;10.32;;;3.05;;
47009;SDS011;59230;54.164;-3.124;2022-07-15T10:00:33;13.77;;;3.70;;
47009;SDS011;59230;54.164;-3.124;2022-07-15T10:05:27;10.45;;;3.78;;
47009;SDS011;59230;54.164;-3.124;2022-07-15T10:07:53;13.02;;;3.85;;
47009;SDS011;59230;54.164;-3.124;2022-07-15T10:10:22;17.13;;;4.68;;
47009;SDS011;59230;54.164;-3.124;2022-07-15T10:13:31;15.73;;;3.30;;
47009;SDS011;59230;54.164;-3.124;2022-07-15T10:16:16;19.50;;;3.80;;
47009;SDS011;59230;54.164;-3.124;2022-07-15T10:21:35;14.35;;;3.88;;
47009;SDS011;59230;54.164;-3.124;2022-07-15T10:24:25;12.10;;;3.60;;
47009;SDS011;59230;54.164;-3.124;2022-07-15T10:27:17;17.38;;;3.20;;
47009;SDS011;59230;54.164;-3.124;2022-07-15T10:29:56;14.35;;;3.00;;
47009;SDS011;59230;54.164;-3.124;2022-07-15T10:32:22;9.27;;;2.80;;
47009;SDS011;59230;54.164;-3.124;2022-07-15T10:34:48;11.43;;;3.20;;
47009;SDS011;59230;54.164;-3.124;2022-07-15T10:37:13;11.15;;;3.50;;
47009;SDS011;59230;54.164;-3.124;2022-07-15T10:42:18;11.80;;;2.85;;
47009;SDS011;59230;54.164;-3.124;2022-07-15T10:45:02;6.80;;;2.42;;
47009;SDS011;59230;54.164;-3.124;2022-07-15T10:47:33;8.77;;;2.70;;
47009;SDS011;59230;54.164;-3.124;2022-07-15T10:49:59;9.20;;;2.35;;
47009;SDS011;59230;54.164;-3.124;2022-07-15T10:57:19;11.45;;;2.08;;
47009;SDS011;59230;54.164;-3.124;2022-07-15T10:59:53;10.38;;;2.33;;
47009;SDS011;59230;54.164;-3.124;2022-07-15T11:02:21;11.18;;;2.33;;
47009;SDS011;59230;54.164;-3.124;2022-07-15T11:04:48;11.10;;;2.55;;
47009;SDS011;59230;54.164;-3.124;2022-07-15T11:09:56;11.15;;;2.20;;
47009;SDS011;59230;54.164;-3.124;2022-07-15T11:19:54;10.90;;;2.42;;
47009;SDS011;59230;54.164;-3.124;2022-07-15T11:22:22;7.32;;;2.15;;
47009;SDS011;59230;54.164;-3.124;2022-07-15T11:24:49;8.48;;;2.13;;
47009;SDS011;59230;54.164;-3.124;2022-07-15T11:27:15;5.45;;;1.90;;
47009;SDS011;59230;54.164;-3.124;2022-07-15T11:34:47;10.93;;;2.80;;
47009;SDS011;59230;54.164;-3.124;2022-07-15T11:37:14;4.13;;;1.90;;
47009;SDS011;59230;54.164;-3.124;2022-07-15T11:39:48;2.13;;;1.15;;
47009;SDS011;59230;54.164;-3.124;2022-07-15T11:42:19;2.63;;;1.15;;
47009;SDS011;59230;54.164;-3.124;2022-07-15T11:45:08;2.30;;;0.93;;
47009;SDS011;59230;54.164;-3.124;2022-07-15T11:47:34;2.42;;;1.15;;
47009;SDS011;59230;54.164;-3.124;2022-07-15T11:50:04;3.92;;;1.13;;
47009;SDS011;59230;54.164;-3.124;2022-07-15T11:52:46;3.53;;;1.00;;
47009;SDS011;59230;54.164;-3.124;2022-07-15T11:55:12;2.42;;;1.20;;
47009;SDS011;59230;54.164;-3.124;2022-07-15T11:57:37;5.03;;;1.60;;
47009;SDS011;59230;54.164;-3.124;2022-07-15T12:00:10;3.10;;;1.58;;
47009;SDS011;59230;54.164;-3.124;2022-07-15T12:02:36;5.65;;;1.50;;
47009;SDS011;59230;54.164;-3.124;2022-07-15T12:05:06;5.40;;;1.63;;
47009;SDS011;59230;54.164;-3.124;2022-07-15T12:07:42;7.68;;;2.05;;
47009;SDS011;59230;54.164;-3.124;2022-07-15T12:10:09;6.90;;;1.70;;
47009;SDS011;59230;54.164;-3.124;2022-07-15T12:12:39;2.50;;;1.58;;
47009;SDS011;59230;54.164;-3.124;2022-07-15T12:15:27;5.85;;;1.73;;
47009;SDS011;59230;54.164;-3.124;2022-07-15T12:17:53;5.60;;;1.70;;
47009;SDS011;59230;54.164;-3.124;2022-07-15T12:20:20;6.30;;;1.50;;
47009;SDS011;59230;54.164;-3.124;2022-07-15T12:26:06;5.80;;;1.48;;
47009;SDS011;59230;54.164;-3.124;2022-07-15T12:28:35;3.13;;;1.65;;
47009;SDS011;59230;54.164;-3.124;2022-07-15T12:31:01;5.70;;;1.98;;
47009;SDS011;59230;54.164;-3.124;2022-07-15T12:33:30;6.25;;;1.65;;
47009;SDS011;59230;54.164;-3.124;2022-07-15T12:36:18;6.03;;;1.40;;
47009;SDS011;59230;54.164;-3.124;2022-07-15T12:38:45;11.32;;;1.80;;
47009;SDS011;59230;54.164;-3.124;2022-07-15T12:41:34;3.40;;;1.48;;
47009;SDS011;59230;54.164;-3.124;2022-07-15T12:44:01;5.35;;;1.67;;
47009;SDS011;59230;54.164;-3.124;2022-07-15T12:49:36;6.75;;;2.00;;
47009;SDS011;59230;54.164;-3.124;2022-07-15T12:54:52;5.25;;;1.48;;
47009;SDS011;59230;54.164;-3.124;2022-07-15T12:57:30;4.70;;;1.80;;
47009;SDS011;59230;54.164;-3.124;2022-07-15T13:02:31;7.22;;;1.60;;
47009;SDS011;59230;54.164;-3.124;2022-07-15T13:04:57;6.55;;;2.28;;
47009;SDS011;59230;54.164;-3.124;2022-07-15T13:07:23;5.28;;;1.73;;
47009;SDS011;59230;54.164;-3.124;2022-07-15T13:09:50;6.05;;;1.50;;
47009;SDS011;59230;54.164;-3.124;2022-07-15T13:12:15;5.60;;;1.50;;
47009;SDS011;59230;54.164;-3.124;2022-07-15T13:14:41;6.38;;;1.67;;
47009;SDS011;59230;54.164;-3.124;2022-07-15T13:17:07;5.03;;;1.30;;
47009;SDS011;59230;54.164;-3.124;2022-07-15T13:19:33;7.15;;;1.52;;
47009;SDS011;59230;54.164;-3.124;2022-07-15T13:21:59;4.90;;;1.30;;
47009;SDS011;59230;54.164;-3.124;2022-07-15T13:24:25;6.30;;;1.40;;
47009;SDS011;59230;54.164;-3.124;2022-07-15T13:26:51;6.50;;;1.60;;
47009;SDS011;59230;54.164;-3.124;2022-07-15T13:29:16;9.57;;;1.42;;
47009;SDS011;59230;54.164;-3.124;2022-07-15T13:34:53;10.55;;;1.65;;
47009;SDS011;59230;54.164;-3.124;2022-07-15T13:37:20;6.40;;;1.67;;
47009;SDS011;59230;54.164;-3.124;2022-07-15T13:39:46;6.03;;;1.70;;
47009;SDS011;59230;54.164;-3.124;2022-07-15T13:42:22;6.55;;;1.88;;
47009;SDS011;59230;54.164;-3.124;2022-07-15T13:44:55;3.03;;;1.63;;
47009;SDS011;59230;54.164;-3.124;2022-07-15T13:47:26;9.77;;;1.60;;
47009;SDS011;59230;54.164;-3.124;2022-07-15T13:49:53;4.65;;;1.42;;
47009;SDS011;59230;54.164;-3.124;2022-07-15T13:52:51;7.22;;;1.73;;
47009;SDS011;59230;54.164;-3.124;2022-07-15T13:55:33;5.07;;;1.50;;
47009;SDS011;59230;54.164;-3.124;2022-07-15T13:58:12;6.18;;;1.80;;
47009;SDS011;59230;54.164;-3.124;2022-07-15T14:00:42;7.10;;;1.45;;
47009;SDS011;59230;54.164;-3.124;2022-07-15T14:03:27;5.07;;;1.38;;
47009;SDS011;59230;54.164;-3.124;2022-07-15T14:06:00;5.22;;;1.38;;
47009;SDS011;59230;54.164;-3.124;2022-07-15T14:08:28;5.25;;;1.17;;
47009;SDS011;59230;54.164;-3.124;2022-07-15T14:13:29;7.00;;;1.67;;
47009;SDS011;59230;54.164;-3.124;2022-07-15T14:15:58;7.65;;;2.60;;
47009;SDS011;59230;54.164;-3.124;2022-07-15T14:18:27;7.38;;;2.60;;
47009;SDS011;59230;54.164;-3.124;2022-07-15T14:21:15;6.75;;;2.13;;
47009;SDS011;59230;54.164;-3.124;2022-07-15T14:23:47;7.30;;;2.30;;
47009;SDS011;59230;54.164;-3.124;2022-07-15T14:26:23;8.88;;;2.42;;
47009;SDS011;59230;54.164;-3.124;2022-07-15T14:28:56;8.70;;;2.20;;
47009;SDS011;59230;54.164;-3.124;2022-07-15T14:31:21;12.15;;;2.88;;
47009;SDS011;59230;54.164;-3.124;2022-07-15T14:33:47;6.38;;;1.90;;
47009;SDS011;59230;54.164;-3.124;2022-07-15T14:36:12;7.65;;;2.00;;
47009;SDS011;59230;54.164;-3.124;2022-07-15T14:38:38;8.38;;;1.90;;
47009;SDS011;59230;54.164;-3.124;2022-07-15T14:41:06;4.95;;;1.52;;
47009;SDS011;59230;54.164;-3.124;2022-07-15T14:43:32;4.43;;;1.52;;
47009;SDS011;59230;54.164;-3.124;2022-07-15T14:45:58;6.05;;;2.05;;
47009;SDS011;59230;54.164;-3.124;2022-07-15T14:57:56;5.97;;;2.17;;
47009;SDS011;59230;54.164;-3.124;2022-07-15T15:00:22;8.85;;;2.00;;
47009;SDS011;59230;54.164;-3.124;2022-07-15T15:02:57;9.05;;;2.55;;
47009;SDS011;59230;54.164;-3.124;2022-07-15T15:05:23;6.07;;;1.90;;
47009;SDS011;59230;54.164;-3.124;2022-07-15T15:08:03;7.55;;;1.95;;
47009;SDS011;59230;54.164;-3.124;2022-07-15T15:18:44;8.93;;;2.30;;
47009;SDS011;59230;54.164;-3.124;2022-07-15T15:21:11;15.23;;;3.00;;
47009;SDS011;59230;54.164;-3.124;2022-07-15T15:26:32;13.38;;;3.10;;
47009;SDS011;59230;54.164;-3.124;2022-07-15T15:31:54;11.13;;;2.78;;
47009;SDS011;59230;54.164;-3.124;2022-07-15T15:34:31;5.30;;;2.28;;
47009;SDS011;59230;54.164;-3.124;2022-07-15T15:36:58;7.70;;;2.25;;
47009;SDS011;59230;54.164;-3.124;2022-07-15T15:39:29;8.25;;;2.30;;
47009;SDS011;59230;54.164;-3.124;2022-07-15T15:42:00;7.68;;;2.20;;
47009;SDS011;59230;54.164;-3.124;2022-07-15T15:44:29;9.18;;;2.65;;
47009;SDS011;59230;54.164;-3.124;2022-07-15T15:46:59;7.72;;;2.25;;
47009;SDS011;59230;54.164;-3.124;2022-07-15T15:49:28;7.22;;;2.20;;